Time;durP1;ratioP1;P1;durP2;ratioP2;P2;SDS_P1;SDS_P2;PMS_P1;PMS_P2;Temp;Humidity;BMP_temperature;BMP_pressure;BME280_temperature;BME280_humidity;BME280_pressure;Samples;Min_cycle;Max_cycle;Signal;HPM_P1;HPM_P2
2023/09/05 00:01:53;;;;;;;10.63;3.67;;;17.90;99.90;;;18.60;68.52;101016.16;5026197;28;20045;-85
2023/09/05 00:04:21;;;;;;;7.28;4.03;;;17.90;99.90;;;18.59;68.43;101011.81;5027803;28;20049;-85
2023/09/05 00:06:50;;;;;;;7.03;3.50;;;17.90;99.90;;;18.59;68.47;101011.00;5024673;28;20095;-86
2023/09/05 00:09:19;;;;;;;8.95;3.60;;;17.90;99.90;;;18.58;68.23;101012.88;5022340;28;20052;-85
2023/09/05 00:11:46;;;;;;;7.53;3.72;;;17.90;99.90;;;18.57;68.40;101007.75;5021202;28;20052;-85
2023/09/05 00:14:15;;;;;;;6.38;3.40;;;17.90;99.90;;;18.55;68.49;101010.69;5026719;28;20491;-85
2023/09/05 00:16:43;;;;;;;7.47;3.33;;;17.90;99.90;;;18.54;68.52;101003.63;5025111;28;20110;-85
2023/09/05 00:19:12;;;;;;;7.90;3.55;;;17.90;99.90;;;18.52;68.25;101000.38;5021894;28;20497;-85
2023/09/05 00:21:39;;;;;;;6.32;3.53;;;17.80;99.90;;;18.51;68.16;101004.16;5039370;28;20126;-85
2023/09/05 00:24:32;;;;;;;8.40;3.33;;;17.80;99.90;;;18.51;68.14;100999.56;5024346;28;20037;-85
2023/09/05 00:27:01;;;;;;;7.65;3.70;;;17.80;99.90;;;18.50;68.19;101003.34;5034927;28;20038;-85
2023/09/05 00:29:30;;;;;;;7.40;3.42;;;17.80;99.90;;;18.48;67.92;101002.75;5027792;28;20441;-85
2023/09/05 00:31:59;;;;;;;6.45;3.30;;;17.80;99.90;;;18.48;68.05;101001.94;5017161;28;20046;-86
2023/09/05 00:34:28;;;;;;;7.70;3.58;;;17.70;99.90;;;18.46;67.89;100996.81;5035143;28;20498;-85
2023/09/05 00:36:55;;;;;;;6.88;3.30;;;17.80;99.90;;;18.45;67.99;100997.88;5024258;28;20133;-85
2023/09/05 00:39:22;;;;;;;6.10;3.33;;;17.80;99.90;;;18.42;67.83;100995.66;5037263;28;20038;-85
2023/09/05 00:41:51;;;;;;;6.68;3.00;;;17.70;99.90;;;18.41;68.22;101002.16;5024331;28;20080;-85
2023/09/05 00:44:19;;;;;;;4.97;2.92;;;17.70;99.90;;;18.40;68.11;100997.81;5030132;28;20041;-85
2023/09/05 00:46:47;;;;;;;5.97;3.15;;;17.70;99.90;;;18.39;68.08;100987.25;5018994;28;20589;-86
2023/09/05 00:49:16;;;;;;;7.00;3.35;;;17.70;99.90;;;18.39;68.15;100987.25;5017563;28;20491;-85
2023/09/05 00:51:45;;;;;;;8.45;3.20;;;17.70;99.90;;;18.40;67.65;100991.59;5017966;28;20387;-86
2023/09/05 00:54:13;;;;;;;5.35;3.13;;;17.70;99.90;;;18.38;67.62;100993.72;5031252;28;20045;-85
2023/09/05 00:56:41;;;;;;;6.13;3.42;;;17.70;99.90;;;18.38;67.69;100991.84;5031523;28;20088;-85
2023/09/05 00:59:10;;;;;;;7.65;3.30;;;17.70;99.90;;;18.38;67.58;100994.53;5024437;28;20049;-85
2023/09/05 01:01:38;;;;;;;6.32;3.13;;;17.70;99.90;;;18.38;67.74;100993.72;5020321;28;20076;-85
2023/09/05 01:04:05;;;;;;;7.80;3.30;;;17.70;99.90;;;18.39;67.45;100990.75;5037976;28;20143;-85
2023/09/05 01:06:46;;;;;;;5.70;3.15;;;17.70;99.90;;;18.38;67.27;100989.13;5020559;28;20058;-85
2023/09/05 01:09:27;;;;;;;7.90;3.53;;;17.70;99.90;;;18.38;67.39;100999.13;5033593;28;20400;-85
2023/09/05 01:11:55;;;;;;;7.25;3.22;;;17.70;99.90;;;18.36;67.34;101003.97;5042057;28;20451;-85
2023/09/05 01:14:24;;;;;;;5.65;3.10;;;17.70;99.90;;;18.34;67.44;100990.69;5028298;28;20044;-86
2023/09/05 01:17:01;;;;;;;5.85;2.80;;;17.60;99.90;;;18.32;67.54;100992.84;5011867;28;20049;-86
2023/09/05 01:19:30;;;;;;;5.70;2.92;;;17.70;99.90;;;18.31;67.29;100991.22;5027055;28;20050;-85
2023/09/05 01:22:12;;;;;;;5.38;3.13;;;17.60;99.90;;;18.31;67.56;100993.09;5024332;28;20037;-85
2023/09/05 01:24:41;;;;;;;7.15;3.03;;;17.60;99.90;;;18.29;67.49;100996.03;5030579;28;20037;-85
2023/09/05 01:27:10;;;;;;;6.03;3.10;;;17.60;99.90;;;18.24;67.37;100991.38;5030970;28;20164;-85
2023/09/05 01:29:39;;;;;;;5.32;3.15;;;17.60;99.90;;;18.22;67.41;101000.81;5021273;28;20046;-85
2023/09/05 01:32:09;;;;;;;5.20;2.90;;;17.50;99.90;;;18.20;67.45;101000.22;5035419;28;20054;-85
2023/09/05 01:34:36;;;;;;;5.97;2.80;;;17.50;99.90;;;18.18;67.60;100995.06;5036699;28;20515;-85
2023/09/05 01:37:04;;;;;;;6.55;2.95;;;17.50;99.90;;;18.21;67.42;100999.19;5019071;28;20072;-85
2023/09/05 01:39:31;;;;;;;4.93;2.70;;;17.50;99.90;;;18.21;67.01;100991.06;5035477;28;20489;-85
2023/09/05 01:42:00;;;;;;;6.60;2.78;;;17.50;99.90;;;18.23;67.01;100994.31;5038593;28;20457;-85
2023/09/05 01:44:27;;;;;;;6.45;2.95;;;17.50;99.90;;;18.24;66.76;100995.97;5026601;28;20141;-85
2023/09/05 01:46:55;;;;;;;6.30;2.80;;;17.50;99.90;;;18.24;66.71;100993.25;5026291;28;20495;-85
2023/09/05 01:49:22;;;;;;;6.45;3.08;;;17.50;99.90;;;18.24;66.74;100985.16;5018630;28;20037;-85
2023/09/05 01:51:49;;;;;;;5.85;3.00;;;17.50;99.90;;;18.24;67.09;100987.84;5005196;28;20754;-85
2023/09/05 01:54:18;;;;;;;6.15;2.83;;;17.50;99.90;;;18.22;66.45;100984.59;5030234;28;20045;-85
2023/09/05 01:56:45;;;;;;;4.57;2.75;;;17.60;99.90;;;18.18;66.21;100984.28;5037338;28;20141;-85
2023/09/05 01:59:14;;;;;;;5.95;2.85;;;17.50;99.90;;;18.21;66.32;100983.78;5032470;28;20111;-85
2023/09/05 02:01:41;;;;;;;9.98;2.72;;;17.50;99.90;;;18.22;66.48;100982.72;5045601;28;20542;-85
2023/09/05 02:04:09;;;;;;;4.78;2.60;;;17.60;99.90;;;18.21;66.46;100980.28;5037462;28;20140;-85
2023/09/05 02:06:36;;;;;;;6.05;2.65;;;17.50;99.90;;;18.20;66.39;100986.72;5025560;28;20045;-85
2023/09/05 02:09:04;;;;;;;4.18;2.50;;;17.60;99.90;;;18.19;66.22;100983.19;5031086;28;20041;-85
2023/09/05 02:11:31;;;;;;;7.60;2.78;;;17.50;99.90;;;18.19;66.39;100990.50;5031282;28;20128;-85
2023/09/05 02:13:59;;;;;;;7.40;2.78;;;17.50;99.90;;;18.18;66.82;100988.84;5043326;28;20562;-85
2023/09/05 02:16:28;;;;;;;5.25;2.67;;;17.50;99.90;;;18.17;66.37;100973.72;5022667;28;20053;-85
2023/09/05 02:18:55;;;;;;;5.22;2.88;;;17.50;99.90;;;18.16;66.27;100977.50;5013690;28;20128;-85
2023/09/05 02:21:22;;;;;;;5.13;2.72;;;17.50;99.90;;;18.15;66.48;100973.97;5029465;28;20069;-85
2023/09/05 02:23:50;;;;;;;6.10;2.50;;;17.50;99.90;;;18.15;66.78;100973.97;5021499;28;20296;-85
2023/09/05 02:26:17;;;;;;;4.50;2.58;;;17.50;99.90;;;18.14;66.44;100971.53;5023649;28;20121;-85
2023/09/05 02:28:44;;;;;;;5.40;2.53;;;17.50;99.90;;;18.11;66.38;100975.56;5039737;28;20081;-85
2023/09/05 02:31:12;;;;;;;5.32;2.53;;;17.40;99.90;;;18.11;66.47;100977.44;5021568;28;20050;-85
2023/09/05 02:33:40;;;;;;;5.13;2.75;;;17.40;99.90;;;18.10;66.56;100983.88;5024279;28;20077;-85
2023/09/05 02:36:15;;;;;;;5.05;2.60;;;17.40;99.90;;;18.08;66.46;100988.72;5032307;28;20052;-85
2023/09/05 02:38:43;;;;;;;6.88;2.70;;;17.40;99.90;;;18.02;65.92;100995.94;5036125;28;20119;-85
2023/09/05 02:41:14;;;;;;;5.68;2.70;;;17.40;99.90;;;18.01;65.57;100997.81;5037180;28;20449;-85
2023/09/05 02:43:41;;;;;;;5.32;2.60;;;17.40;99.90;;;18.04;65.97;101001.06;5025744;28;20457;-85
2023/09/05 02:46:10;;;;;;;6.03;2.75;;;17.40;99.90;;;18.06;66.13;100999.78;5040365;28;20494;-86
2023/09/05 02:48:43;;;;;;;7.35;2.60;;;17.40;99.90;;;18.06;66.35;101001.66;5040383;28;20478;-85
2023/09/05 02:51:13;;;;;;;6.07;2.60;;;17.40;99.90;;;18.07;66.45;101003.28;5040645;28;20104;-85
2023/09/05 02:53:41;;;;;;;5.78;2.63;;;17.50;99.90;;;18.09;66.25;101004.66;5033250;28;20513;-85
2023/09/05 02:56:08;;;;;;;4.47;2.40;;;17.50;99.90;;;18.10;66.20;100994.69;5041075;28;20046;-85
2023/09/05 02:58:35;;;;;;;5.30;2.80;;;17.50;99.90;;;18.09;65.92;100995.75;5024041;28;20072;-85
2023/09/05 03:01:05;;;;;;;5.65;2.50;;;17.50;99.90;;;18.05;65.90;101003.50;5018908;28;20062;-85
2023/09/05 03:03:33;;;;;;;6.32;2.40;;;17.40;99.90;;;18.09;66.24;101006.53;5017339;28;20406;-85
2023/09/05 03:06:11;;;;;;;4.47;2.65;;;17.40;99.90;;;18.07;66.21;101011.38;5017119;28;20141;-85
2023/09/05 03:08:39;;;;;;;5.25;2.53;;;17.40;99.90;;;18.06;65.95;101001.66;5023664;28;20049;-85
2023/09/05 03:11:07;;;;;;;4.85;2.13;;;17.40;99.90;;;18.06;66.07;101007.88;5040333;28;20041;-85
2023/09/05 03:13:34;;;;;;;4.80;2.60;;;17.40;99.90;;;18.04;66.11;100999.19;5045097;28;20133;-85
2023/09/05 03:16:02;;;;;;;5.47;2.92;;;17.40;99.90;;;18.04;66.17;100999.19;5024902;28;20046;-82
2023/09/05 03:18:30;;;;;;;5.40;2.30;;;17.40;99.90;;;18.04;66.15;100998.38;5028189;28;20089;-86
2023/09/05 03:20:58;;;;;;;4.97;2.35;;;17.40;99.90;;;18.00;66.09;100998.84;5036156;28;20038;-86
2023/09/05 03:23:27;;;;;;;4.38;2.20;;;17.40;99.90;;;17.98;66.09;101001.00;5019794;28;20042;-87
2023/09/05 03:25:54;;;;;;;4.22;2.40;;;17.30;99.90;;;18.00;66.29;101009.66;5021906;28;20431;-87
2023/09/05 03:28:21;;;;;;;4.25;2.35;;;17.30;99.90;;;18.00;66.07;101012.34;5021864;28;20041;-88
2023/09/05 03:30:49;;;;;;;7.45;2.60;;;17.30;99.90;;;17.97;66.12;101007.47;5030845;28;20133;-87
2023/09/05 03:33:16;;;;;;;5.88;2.58;;;17.30;99.90;;;17.97;65.95;101004.75;5030019;28;20077;-87
2023/09/05 03:35:44;;;;;;;5.30;2.47;;;17.30;99.90;;;17.96;66.13;101002.31;5030026;28;20111;-87
2023/09/05 03:38:12;;;;;;;10.52;3.00;;;17.30;99.90;;;17.94;66.29;101002.56;5022898;28;20045;-88
2023/09/05 03:40:41;;;;;;;6.50;2.53;;;17.30;99.90;;;17.93;66.19;101006.31;5039608;28;20045;-88
2023/09/05 03:43:09;;;;;;;4.85;2.35;;;17.30;99.90;;;17.94;66.13;101002.56;5018318;28;20085;-87
2023/09/05 03:45:36;;;;;;;5.03;2.38;;;17.30;99.90;;;17.95;66.30;101006.06;5035815;28;20046;-88
2023/09/05 03:48:04;;;;;;;10.70;2.55;;;17.30;99.90;;;17.93;66.23;100995.53;5036066;28;20055;-88
2023/09/05 03:50:31;;;;;;;5.15;2.70;;;17.30;99.90;;;17.92;66.35;100996.59;5020588;28;20495;-88
2023/09/05 03:52:58;;;;;;;4.40;2.25;;;17.30;99.90;;;17.89;66.44;100999.78;5019756;28;20066;-88
2023/09/05 03:55:26;;;;;;;3.92;2.50;;;17.20;99.90;;;17.85;66.40;101009.41;5021934;28;20487;-88
2023/09/05 03:57:55;;;;;;;5.13;2.53;;;17.20;99.90;;;17.82;66.51;101001.84;5026034;28;20599;-88
2023/09/05 04:00:22;;;;;;;6.10;2.67;;;17.10;99.90;;;17.81;66.97;101007.47;5030443;28;20042;-88
2023/09/05 04:02:50;;;;;;;5.05;2.47;;;17.10;99.90;;;17.75;66.82;101001.97;5029836;28;20041;-88
2023/09/05 04:05:16;;;;;;;5.45;2.47;;;17.10;99.90;;;17.68;67.07;101012.09;5030777;28;20805;-88
2023/09/05 04:07:43;;;;;;;7.72;2.45;;;17.00;99.90;;;17.67;67.29;101007.78;5046797;28;20057;-88
2023/09/05 04:10:12;;;;;;;5.88;2.40;;;17.00;99.90;;;17.67;67.22;101006.97;5022016;28;20048;-88
2023/09/05 04:12:39;;;;;;;4.50;2.35;;;17.00;99.90;;;17.65;67.45;101009.88;5021974;28;20549;-88
2023/09/05 04:15:09;;;;;;;4.15;2.33;;;17.00;99.90;;;17.65;67.10;101011.78;5046858;28;20874;-88
2023/09/05 04:17:37;;;;;;;5.20;2.60;;;17.00;99.90;;;17.63;67.55;101003.13;5014413;28;20065;-88
2023/09/05 04:20:07;;;;;;;6.90;2.45;;;17.00;99.90;;;17.62;67.10;101004.19;5014635;28;20352;-87
2023/09/05 04:22:34;;;;;;;5.03;2.38;;;16.90;99.90;;;17.60;67.26;101007.09;5027705;28;20060;-87
2023/09/05 04:25:02;;;;;;;5.93;2.97;;;16.90;99.90;;;17.58;67.14;101005.72;5027790;28;20077;-88
2023/09/05 04:27:29;;;;;;;4.88;2.90;;;16.90;99.90;;;17.58;67.23;101013.81;5023461;28;20064;-88
2023/09/05 04:29:56;;;;;;;5.00;2.35;;;16.90;99.90;;;17.55;67.22;101006.22;5026521;28;20477;-88
2023/09/05 04:32:30;;;;;;;4.85;2.60;;;16.90;99.90;;;17.53;67.36;101008.34;5034791;28;20145;-88
2023/09/05 04:35:00;;;;;;;4.80;2.30;;;16.80;99.90;;;17.50;67.04;101013.16;5037638;28;20037;-88
2023/09/05 04:37:29;;;;;;;5.45;2.72;;;16.80;99.90;;;17.48;67.39;100999.09;5023793;28;20048;-88
2023/09/05 04:40:01;;;;;;;7.43;2.72;;;16.80;99.90;;;17.46;67.67;101003.09;5017425;28;20103;-88
2023/09/05 04:42:29;;;;;;;5.18;2.88;;;16.80;99.90;;;17.41;67.62;101009.22;5029950;28;20525;-88
2023/09/05 04:44:56;;;;;;;4.88;2.70;;;16.70;99.90;;;17.39;67.57;101022.13;5035402;28;20042;-88
2023/09/05 04:47:27;;;;;;;6.88;2.85;;;16.70;99.90;;;17.37;67.67;101015.31;5015190;28;20057;-88
2023/09/05 04:49:57;;;;;;;4.53;2.75;;;16.70;99.90;;;17.34;67.71;101007.75;5032412;28;20041;-88
2023/09/05 04:52:27;;;;;;;5.95;2.88;;;16.70;99.90;;;17.34;67.70;101008.56;5028226;28;20049;-88
2023/09/05 04:54:55;;;;;;;6.70;3.33;;;16.60;99.90;;;17.32;67.60;101009.84;5010984;28;20073;-88
2023/09/05 04:57:23;;;;;;;4.10;2.45;;;16.60;99.90;;;17.29;67.77;101016.56;5024323;28;20068;-88
2023/09/05 04:59:56;;;;;;;4.97;2.70;;;16.60;99.90;;;17.27;67.88;101013.28;5011968;28;20764;-88
2023/09/05 05:02:26;;;;;;;9.95;2.45;;;16.60;99.90;;;17.25;67.98;101015.41;5028063;28;20053;-88
2023/09/05 05:04:55;;;;;;;9.07;2.85;;;16.50;99.90;;;17.25;67.98;101028.88;5024598;28;20077;-88
2023/09/05 05:07:22;;;;;;;7.72;2.80;;;16.50;99.90;;;17.23;67.95;101028.31;5018138;28;20038;-87
2023/09/05 05:09:50;;;;;;;5.93;2.85;;;16.50;99.90;;;17.20;68.27;101026.09;5018963;28;20041;-88
2023/09/05 05:12:17;;;;;;;7.05;2.85;;;16.50;99.90;;;17.20;68.44;101031.47;5038618;28;20510;-88
2023/09/05 05:14:45;;;;;;;5.68;3.33;;;16.50;99.90;;;17.19;68.49;101036.06;5015290;28;20034;-88
2023/09/05 05:17:12;;;;;;;5.47;3.03;;;16.50;99.90;;;17.20;68.45;101028.78;5023476;28;20785;-87
2023/09/05 05:19:41;;;;;;;5.63;3.00;;;16.50;99.90;;;17.23;68.78;101041.78;5015594;28;20042;-86
2023/09/05 05:22:10;;;;;;;9.70;3.10;;;16.50;99.90;;;17.26;68.66;101044.00;5037545;28;20080;-86
2023/09/05 05:24:37;;;;;;;7.25;2.88;;;16.60;99.90;;;17.27;68.95;101040.22;5032964;28;20041;-86
2023/09/05 05:27:05;;;;;;;6.07;2.80;;;16.60;99.90;;;17.28;69.05;101046.47;5026832;28;20483;-86
2023/09/05 05:29:32;;;;;;;6.85;2.90;;;16.60;99.90;;;17.28;69.15;101043.78;5045303;28;20521;-86
2023/09/05 05:32:00;;;;;;;8.40;3.65;;;16.60;99.90;;;17.29;69.26;101043.53;5025606;28;20103;-86
2023/09/05 05:34:27;;;;;;;9.30;3.60;;;16.60;99.90;;;17.32;69.56;101042.19;5017363;28;20042;-86
2023/09/05 05:36:56;;;;;;;7.82;3.03;;;16.70;99.90;;;17.32;69.74;101040.31;5008706;28;20112;-88
2023/09/05 05:39:25;;;;;;;6.82;3.25;;;16.70;99.90;;;17.34;69.75;101045.50;5024366;28;20042;-87
2023/09/05 05:41:52;;;;;;;9.63;3.60;;;16.70;99.90;;;17.37;69.74;101043.13;5036245;28;20046;-87
2023/09/05 05:44:19;;;;;;;5.32;3.10;;;16.80;99.90;;;17.44;70.02;101051.88;5030306;28;20056;-86
2023/09/05 05:46:47;;;;;;;6.90;3.38;;;16.90;99.90;;;17.47;69.92;101040.63;5034794;28;20095;-84
2023/09/05 05:49:14;;;;;;;6.25;3.33;;;16.90;99.90;;;17.51;69.75;101046.31;5027497;28;20041;-84
2023/09/05 05:51:41;;;;;;;8.73;3.63;;;16.90;99.90;;;17.58;70.28;101043.50;5029973;28;20449;-84
2023/09/05 05:54:10;;;;;;;7.07;3.40;;;17.00;99.90;;;17.59;70.20;101047.81;5034958;28;20075;-84
2023/09/05 05:56:37;;;;;;;8.70;3.85;;;17.10;99.90;;;17.60;70.60;101042.16;5033942;28;20502;-85
2023/09/05 05:59:06;;;;;;;6.90;3.70;;;17.10;99.90;;;17.60;70.90;101047.56;5026233;28;20045;-85
2023/09/05 06:01:34;;;;;;;8.35;3.60;;;17.10;99.90;;;17.63;70.92;101041.69;5012712;28;20052;-85
2023/09/05 06:04:01;;;;;;;10.38;3.30;;;17.20;99.90;;;17.68;70.51;101043.66;5020378;28;20418;-85
2023/09/05 06:06:28;;;;;;;8.35;3.80;;;17.30;99.90;;;17.74;70.61;101037.31;5040087;28;20041;-85
2023/09/05 06:08:55;;;;;;;10.05;3.90;;;17.30;99.90;;;17.79;69.85;101034.69;5028764;28;20140;-84
2023/09/05 06:11:24;;;;;;;9.73;4.00;;;17.40;99.90;;;17.83;69.64;101035.84;5022919;28;20042;-85
2023/09/05 06:13:52;;;;;;;10.10;4.25;;;17.50;99.90;;;17.88;69.43;101035.94;5027561;28;20073;-86
2023/09/05 06:16:20;;;;;;;10.63;4.13;;;17.60;99.90;;;17.92;69.50;101037.06;5021135;28;20495;-85
2023/09/05 06:18:48;;;;;;;14.75;4.55;;;17.70;99.90;;;17.97;69.51;101047.13;5013478;28;20103;-85
2023/09/05 06:21:15;;;;;;;8.88;3.85;;;17.80;99.90;;;18.04;69.33;101044.25;5023568;28;20875;-85
2023/09/05 06:23:43;;;;;;;11.48;4.40;;;17.80;99.90;;;18.09;69.70;101049.75;5023571;28;20136;-85
2023/09/05 06:26:13;;;;;;;8.70;4.13;;;17.90;99.90;;;18.13;69.82;101034.69;5044997;23;20046;-80
2023/09/05 06:28:44;;;;;;;11.13;4.70;;;18.00;99.90;;;18.18;69.09;101046.38;4993088;28;20108;-80
2023/09/05 06:31:11;;;;;;;11.27;4.35;;;18.10;99.90;;;18.24;69.27;101045.38;5000887;28;20124;-81
2023/09/05 06:33:38;;;;;;;9.52;4.00;;;18.20;99.90;;;18.35;69.12;101032.84;5008640;28;20050;-80
2023/09/05 06:36:06;;;;;;;9.45;4.03;;;18.30;99.90;;;18.44;69.13;101036.75;5009649;28;20077;-81
2023/09/05 06:38:34;;;;;;;10.70;4.10;;;18.50;99.90;;;18.58;68.88;101039.91;5003444;28;20146;-81
2023/09/05 06:41:06;;;;;;;7.90;3.92;;;18.60;99.90;;;18.69;69.13;101038.16;4995799;28;20049;-81
2023/09/05 06:43:33;;;;;;;11.25;3.85;;;18.80;99.90;;;18.85;68.49;101039.19;5009595;28;20682;-80
2023/09/05 06:46:14;;;;;;;13.40;4.60;;;18.90;99.90;;;18.95;67.62;101037.44;5007997;28;20077;-81
2023/09/05 06:48:42;;;;;;;10.13;4.32;;;19.00;99.90;;;19.08;68.07;101043.50;4993693;28;20041;-80
2023/09/05 06:51:09;;;;;;;8.52;4.30;;;19.10;99.90;;;19.17;68.42;101041.97;5000862;28;20554;-83
2023/09/05 06:53:36;;;;;;;9.20;3.80;;;19.20;99.90;;;19.24;67.88;101039.91;4990143;28;20149;-81
2023/09/05 06:56:05;;;;;;;9.70;4.00;;;19.30;99.90;;;19.36;66.87;101042.44;5006994;28;20509;-81
2023/09/05 06:58:32;;;;;;;9.50;4.15;;;19.40;99.90;;;19.43;66.13;101048.47;5004424;28;20053;-80
2023/09/05 07:01:06;;;;;;;9.55;3.70;;;19.50;99.90;;;19.53;66.21;101049.38;5008333;28;20088;-81
2023/09/05 07:03:33;;;;;;;11.27;3.95;;;19.60;99.90;;;19.61;66.12;101041.91;5013413;28;20499;-80
2023/09/05 07:06:04;;;;;;;9.68;4.00;;;19.70;99.90;;;19.71;65.34;101044.69;5004357;28;20499;-81
2023/09/05 07:08:31;;;;;;;8.45;3.60;;;19.80;99.90;;;19.79;65.18;101049.63;5001975;28;20050;-81
2023/09/05 07:10:59;;;;;;;8.63;3.58;;;19.90;99.90;;;19.86;65.00;101044.00;5006201;28;20667;-81
2023/09/05 07:13:26;;;;;;;5.75;3.30;;;20.00;99.90;;;19.93;64.80;101045.44;5012130;28;20049;-81
2023/09/05 07:15:53;;;;;;;7.95;3.30;;;20.00;99.90;;;20.03;63.67;101048.19;5011328;28;20499;-80
2023/09/05 07:18:23;;;;;;;12.00;3.45;;;20.20;99.90;;;20.13;63.05;101046.66;5012305;28;20578;-81
2023/09/05 07:20:51;;;;;;;7.30;3.58;;;20.30;99.90;;;20.22;62.25;101048.59;5009148;28;20056;-81
2023/09/05 07:23:18;;;;;;;7.93;2.80;;;20.40;99.90;;;20.32;62.07;101042.44;4992994;28;20815;-81
2023/09/05 07:25:46;;;;;;;6.82;2.95;;;20.50;99.90;;;20.43;61.57;101044.13;4999765;28;20492;-81
2023/09/05 07:28:13;;;;;;;6.78;2.75;;;20.60;99.90;;;20.51;61.27;101034.72;5002932;28;20414;-81
2023/09/05 07:30:40;;;;;;;6.65;3.03;;;20.70;99.90;;;20.54;60.38;101040.41;4996044;28;20043;-80
2023/09/05 07:33:08;;;;;;;6.88;2.83;;;20.70;99.90;;;20.64;60.43;101044.25;5005342;28;20060;-80
2023/09/05 07:35:36;;;;;;;6.10;2.90;;;20.90;99.90;;;20.75;59.99;101035.91;5004736;28;20116;-80
2023/09/05 07:38:04;;;;;;;8.15;3.28;;;21.00;99.90;;;20.86;59.77;101036.75;5004167;28;20813;-81
2023/09/05 07:40:31;;;;;;;5.65;2.75;;;21.10;99.90;;;20.95;59.49;101037.06;5009877;28;20046;-81
2023/09/05 07:43:00;;;;;;;7.95;3.08;;;21.20;99.90;;;21.04;59.20;101046.31;5011825;28;20156;-81
2023/09/05 07:45:27;;;;;;;6.85;2.85;;;21.30;99.90;;;21.19;59.01;101048.25;5010332;28;20104;-81
2023/09/05 07:48:07;;;;;;;;;;;;;;;;;;;;;
2023/09/05 07:50:38;;;;;;;5.55;2.92;;;21.70;99.90;;;21.41;58.60;101051.56;5000104;28;20450;-80
2023/09/05 07:53:06;;;;;;;7.43;3.00;;;21.70;99.90;;;21.53;59.21;101054.03;5011467;28;20072;-80
2023/09/05 07:55:33;;;;;;;5.93;2.70;;;21.80;99.90;;;21.62;58.34;101051.59;5011529;28;20522;-81
2023/09/05 07:58:00;;;;;;;7.90;2.90;;;21.90;99.90;;;21.74;58.34;101041.28;5011277;28;20040;-81
2023/09/05 08:00:29;;;;;;;6.45;2.38;;;22.00;99.90;;;21.82;58.25;101044.28;5008546;28;20084;-81
2023/09/05 08:02:58;;;;;;;7.00;2.25;;;22.10;99.90;;;21.95;57.29;101040.19;4997872;28;20052;-81
2023/09/05 08:05:26;;;;;;;5.25;2.55;;;22.30;99.90;;;22.06;57.84;101036.38;4999501;28;20142;-81
2023/09/05 08:07:54;;;;;;;4.93;2.25;;;22.40;99.90;;;22.18;55.21;101035.31;5002311;28;20072;-81
2023/09/05 08:10:22;;;;;;;4.07;2.20;;;22.50;98.80;;;22.26;56.27;101034.75;4984035;28;20049;-81
2023/09/05 08:12:52;;;;;;;6.47;2.55;;;22.60;99.30;;;22.38;56.90;101029.81;5002583;28;20049;-83
2023/09/05 08:15:19;;;;;;;5.28;2.15;;;22.70;99.90;;;22.40;53.34;101035.81;5011288;28;20145;-81
2023/09/05 08:17:47;;;;;;;4.93;2.20;;;22.80;95.50;;;22.41;54.35;101037.44;5011826;28;20630;-82
2023/09/05 08:20:16;;;;;;;11.38;2.33;;;22.80;97.00;;;22.50;53.79;101030.34;5001803;28;20049;-82
2023/09/05 08:22:46;;;;;;;5.57;2.25;;;22.90;96.10;;;22.62;53.56;101032.72;4987038;28;20045;-83
2023/09/05 08:25:16;;;;;;;7.28;2.25;;;23.00;95.60;;;22.72;52.38;101029.16;5004467;28;20130;-82
2023/09/05 08:27:45;;;;;;;3.83;2.13;;;23.10;94.20;;;22.76;53.01;101027.50;5004989;28;20535;-82
2023/09/05 08:30:14;;;;;;;4.65;2.30;;;23.20;94.70;;;22.79;53.16;101025.06;4998997;28;20038;-82
2023/09/05 08:32:41;;;;;;;7.88;1.90;;;23.20;94.80;;;22.80;52.74;101020.44;5000040;28;20129;-82
2023/09/05 08:35:10;;;;;;;4.00;2.25;;;23.20;94.20;;;22.86;53.01;101028.28;5000238;28;20809;-82
2023/09/05 08:37:37;;;;;;;4.20;2.50;;;23.30;94.40;;;22.97;53.23;101020.09;5003185;28;20038;-82
2023/09/05 08:40:06;;;;;;;4.85;1.95;;;23.30;94.80;;;23.00;52.03;101014.91;4986255;28;20519;-83
2023/09/05 08:42:38;;;;;;;6.88;1.95;;;23.40;93.20;;;23.01;51.54;101013.81;5003397;28;20057;-82
2023/09/05 08:45:08;;;;;;;4.20;2.30;;;23.40;92.00;;;23.11;52.11;101012.94;5004351;28;20049;-82
2023/09/05 08:47:36;;;;;;;3.78;1.90;;;23.50;93.00;;;23.16;51.65;101012.09;5011728;28;20062;-82
2023/09/05 08:50:04;;;;;;;4.00;2.10;;;23.60;92.50;;;23.21;51.92;101006.59;5010794;28;20101;-82
2023/09/05 08:52:35;;;;;;;5.85;2.00;;;23.60;92.80;;;23.27;50.58;101002.75;5001352;28;20088;-82
2023/09/05 08:55:03;;;;;;;4.13;1.77;;;23.70;91.00;;;23.25;51.22;101002.22;5006614;28;20125;-82
2023/09/05 08:57:32;;;;;;;5.05;2.47;;;23.70;91.70;;;23.33;50.66;101004.38;5010242;28;20116;-83
2023/09/05 09:00:06;;;;;;;3.83;1.83;;;23.80;90.80;;;23.44;52.71;101005.91;5012858;28;20078;-82
2023/09/05 09:02:35;;;;;;;3.58;1.73;;;23.80;93.20;;;23.43;49.99;101001.56;5007472;28;20054;-82
2023/09/05 09:05:03;;;;;;;5.60;2.20;;;23.80;90.00;;;23.43;49.93;100995.31;4983641;28;20145;-82
2023/09/05 09:07:31;;;;;;;4.60;1.92;;;23.80;89.50;;;23.46;51.10;100989.28;5011787;28;20205;-81
2023/09/05 09:09:59;;;;;;;4.85;1.85;;;23.90;90.90;;;23.46;48.58;100990.09;5009646;28;20477;-80
2023/09/05 09:12:31;;;;;;;3.53;1.60;;;23.90;87.90;;;23.55;50.21;100982.94;4987398;28;20133;-81
2023/09/05 09:15:11;;;;;;;5.30;1.73;;;24.00;90.00;;;23.57;48.82;100997.09;4999577;28;20038;-81
2023/09/05 09:17:42;;;;;;;4.00;1.75;;;24.10;88.00;;;23.60;49.30;100996.50;5012248;28;20582;-81
2023/09/05 09:20:12;;;;;;;14.30;1.63;;;24.00;88.30;;;23.59;50.08;100994.88;5003541;28;20419;-81
2023/09/05 09:22:39;;;;;;;3.17;1.60;;;24.00;89.10;;;23.57;48.23;100994.38;5003386;28;20081;-82
2023/09/05 09:25:12;;;;;;;4.90;1.88;;;24.00;86.70;;;23.60;48.80;100995.69;5005856;28;20082;-81
2023/09/05 09:27:42;;;;;;;5.75;1.75;;;24.10;87.40;;;23.69;50.21;100996.75;5006278;28;20042;-81
2023/09/05 09:30:12;;;;;;;4.68;1.45;;;24.20;89.50;;;23.72;49.33;100992.63;4986679;28;20075;-81
2023/09/05 09:32:40;;;;;;;5.00;1.80;;;24.20;87.90;;;23.79;50.40;101001.28;5006707;28;20042;-81
2023/09/05 09:35:11;;;;;;;3.55;1.80;;;24.20;89.40;;;23.78;50.74;101003.19;5000163;28;20321;-81
2023/09/05 09:37:38;;;;;;;4.72;1.42;;;24.20;89.60;;;23.90;50.49;100994.63;5014231;28;20097;-81
2023/09/05 09:40:07;;;;;;;4.55;1.90;;;24.30;89.50;;;23.93;50.01;100998.72;5006087;28;20125;-82
2023/09/05 09:42:36;;;;;;;6.28;1.90;;;24.40;88.90;;;23.99;52.42;100994.81;5003122;28;20054;-81
2023/09/05 09:45:07;;;;;;;5.13;1.65;;;24.40;91.40;;;24.05;50.17;100997.19;5009878;28;20120;-82
2023/09/05 09:47:46;;;;;;;3.47;1.50;;;24.50;89.10;;;24.04;48.81;100992.84;5013109;28;20050;-81
2023/09/05 09:50:17;;;;;;;4.35;1.60;;;24.50;87.40;;;23.98;47.98;100993.19;5010694;28;20042;-82
2023/09/05 09:52:48;;;;;;;3.33;1.60;;;24.40;86.10;;;24.04;48.03;100987.41;5007415;28;20092;-82
2023/09/05 09:55:17;;;;;;;2.67;1.40;;;24.40;86.30;;;24.07;49.02;100980.56;5014671;28;20053;-81
2023/09/05 09:57:56;;;;;;;5.22;1.70;;;24.50;87.40;;;24.05;48.30;100985.50;5012782;28;20566;-82
2023/09/05 10:00:24;;;;;;;2.95;1.50;;;24.50;86.30;;;24.03;48.80;100991.22;5004405;28;20058;-82
2023/09/05 10:02:54;;;;;;;3.03;1.40;;;24.50;86.70;;;24.05;46.94;100982.75;5009287;28;20038;-82
2023/09/05 10:05:24;;;;;;;4.20;1.30;;;24.50;84.70;;;24.04;48.32;100984.69;5010927;28;20080;-82
2023/09/05 10:07:54;;;;;;;3.00;1.30;;;24.40;86.20;;;24.07;48.67;100989.56;4994153;28;20048;-82
2023/09/05 10:10:22;;;;;;;2.83;1.38;;;24.50;86.70;;;24.09;47.72;100972.91;4981449;28;20054;-82
2023/09/05 10:12:52;;;;;;;5.80;1.63;;;24.50;85.20;;;24.09;47.59;100981.91;5012905;28;20048;-82
2023/09/05 10:15:21;;;;;;;3.53;1.33;;;24.50;85.30;;;24.14;49.03;100970.13;5014514;28;20537;-82
2023/09/05 10:17:50;;;;;;;3.25;1.30;;;24.60;86.70;;;24.14;47.13;100970.94;5011983;28;20673;-82
2023/09/05 10:20:21;;;;;;;3.05;1.50;;;24.60;84.20;;;24.21;47.12;100972.53;5012722;28;20456;-81